< < Back
Terminal Aerodrome Forecast


Current Version              Previous Versions:   1  2  3  4  5  6  7  8  9  

Terminal Aerodrome Forecast

089
FTUS42 KILM 021000 AAB
TAFFLO
TAF AMD
KFLO 021008Z 0210/0306 00000KT P6SM SCT080
      TEMPO 0210/0212 4SM BR BKN003
     FM021400 22004KT P6SM FEW045=



Latest METAR

490
SAUS70 KWBC 011200 RRX
MTRFLO
METAR KFLO 021153Z 00000KT 6SM BR CLR 17/16 A3010 RMK AO2 SLP188
T01720161 10200 20167 53016


USA.gov is the U.S. government's official web portal to all federal, state and local government web resources and services.